Airfield :
LOGIN :

Register | Disclaimer

   EN    FR    IT 

 










Legend :    VFR   Marginal VFR   IFR   Intensive IFR   Very Intensive IFR
Visi :
Ceiling :
>= 8 km
>= 3000ft
5 to 8 km
1000 to 3000 ft
1500m to 5 km
500 to 1000 ft
800 to 1500m
200 to 500 ft
< 800m
< 200 ft
Symbols :   Thunderstorms  Fog  Heavy snow  Heavy precipitations  Wind > 20 kt
SIGMETs :     Misc.  Thunderstorms  Icing  Turbulence  Mountain Waves  Volcanic Ashes







- Airport Elevation : 359 ft
- IATA code : BVA
- Download approach charts


LFOB - Beauvais

CURRENT METAR :
  • 240830Z AUTO 24011KT 210V310 9999 BKN026 BKN032 20/13 Q1019 NOSIG

EXPIRED METARs :
  • 240800Z AUTO 24010KT 210V280 9999 SCT024 20/13 Q1019 NOSIG
  • 240730Z AUTO 25010KT 220V280 9999 FEW021 18/12 Q1019 NOSIG
  • 240700Z AUTO 23010KT 200V260 CAVOK 17/12 Q1019 NOSIG
  • 240630Z AUTO 22009KT CAVOK 17/12 Q1019 NOSIG
  • 240600Z AUTO 23010KT 9999 FEW011 15/12 Q1019 NOSIG

TAF TAF LFOB
Valid from the 23 at 18:00 until the 24 at 18:00 UTC


231700Z 2318/2418 27008KT 9999 BKN035
TEMPO 2403/2407 BKN008
ATIS : +33 3 44 11 49 28
No reported NOTAMs for that airfield.



MET'MAP, your aeronautical weather chart ! - Copyright ORBIFLY December 2007 - Disclaimer

ORBIFLY MET'MAP TEAM :

Programming & Development : Alexandra Zaïnal
Concept & Development : Baudouin d'Aumeries
Co-Development & Prog : Marc-Olivier Méhu
Technical & hardware support : Manuel Goepfert

Contact : metmap@orbifly.com




SOURCES & CREDITS :

   NOAA